sensor_id;sensor_type;location;lat;lon;timestamp;P1;durP1;ratioP1;P2;durP2;ratioP2
54795;SDS011;40693;43.884;20.340;2023-07-24T00:00:14;26.40;;;19.75;;
54795;SDS011;40693;43.884;20.340;2023-07-24T00:02:40;21.83;;;18.67;;
54795;SDS011;40693;43.884;20.340;2023-07-24T00:05:06;23.27;;;19.55;;
54795;SDS011;40693;43.884;20.340;2023-07-24T00:07:32;23.83;;;19.77;;
54795;SDS011;40693;43.884;20.340;2023-07-24T00:09:57;24.90;;;20.02;;
54795;SDS011;40693;43.884;20.340;2023-07-24T00:12:23;23.90;;;20.30;;
54795;SDS011;40693;43.884;20.340;2023-07-24T00:14:49;32.75;;;21.05;;
54795;SDS011;40693;43.884;20.340;2023-07-24T00:17:14;23.30;;;19.27;;
54795;SDS011;40693;43.884;20.340;2023-07-24T00:19:40;24.83;;;19.60;;
54795;SDS011;40693;43.884;20.340;2023-07-24T00:22:06;24.48;;;18.98;;
54795;SDS011;40693;43.884;20.340;2023-07-24T00:24:32;25.05;;;18.98;;
54795;SDS011;40693;43.884;20.340;2023-07-24T00:26:57;25.45;;;19.83;;
54795;SDS011;40693;43.884;20.340;2023-07-24T00:29:23;21.65;;;19.27;;
54795;SDS011;40693;43.884;20.340;2023-07-24T00:31:49;25.92;;;19.55;;
54795;SDS011;40693;43.884;20.340;2023-07-24T00:34:14;25.30;;;19.73;;
54795;SDS011;40693;43.884;20.340;2023-07-24T00:36:40;25.63;;;19.20;;
54795;SDS011;40693;43.884;20.340;2023-07-24T00:39:06;25.20;;;20.38;;
54795;SDS011;40693;43.884;20.340;2023-07-24T00:41:31;22.27;;;18.25;;
54795;SDS011;40693;43.884;20.340;2023-07-24T00:43:57;24.60;;;19.42;;
54795;SDS011;40693;43.884;20.340;2023-07-24T00:46:23;23.55;;;19.25;;
54795;SDS011;40693;43.884;20.340;2023-07-24T00:48:49;26.85;;;19.33;;
54795;SDS011;40693;43.884;20.340;2023-07-24T00:51:16;23.85;;;20.23;;
54795;SDS011;40693;43.884;20.340;2023-07-24T00:53:42;27.35;;;19.92;;
54795;SDS011;40693;43.884;20.340;2023-07-24T00:56:08;21.35;;;19.00;;
54795;SDS011;40693;43.884;20.340;2023-07-24T00:58:35;19.75;;;17.50;;
54795;SDS011;40693;43.884;20.340;2023-07-24T01:01:03;21.20;;;17.85;;
54795;SDS011;40693;43.884;20.340;2023-07-24T01:03:33;20.88;;;17.80;;
54795;SDS011;40693;43.884;20.340;2023-07-24T01:06:03;20.08;;;17.92;;
54795;SDS011;40693;43.884;20.340;2023-07-24T01:08:29;19.65;;;17.05;;
54795;SDS011;40693;43.884;20.340;2023-07-24T01:10:56;22.23;;;17.52;;
54795;SDS011;40693;43.884;20.340;2023-07-24T01:13:28;19.58;;;17.38;;
54795;SDS011;40693;43.884;20.340;2023-07-24T01:15:59;20.95;;;18.13;;
54795;SDS011;40693;43.884;20.340;2023-07-24T01:18:30;18.38;;;16.45;;
54795;SDS011;40693;43.884;20.340;2023-07-24T01:20:56;19.30;;;16.58;;
54795;SDS011;40693;43.884;20.340;2023-07-24T01:25:59;21.63;;;17.83;;
54795;SDS011;40693;43.884;20.340;2023-07-24T01:28:26;19.83;;;17.63;;
54795;SDS011;40693;43.884;20.340;2023-07-24T01:30:52;19.35;;;16.58;;
54795;SDS011;40693;43.884;20.340;2023-07-24T01:33:18;18.27;;;16.05;;
54795;SDS011;40693;43.884;20.340;2023-07-24T01:35:44;22.15;;;16.17;;
54795;SDS011;40693;43.884;20.340;2023-07-24T01:38:13;23.90;;;18.13;;
54795;SDS011;40693;43.884;20.340;2023-07-24T01:40:42;22.85;;;17.33;;
54795;SDS011;40693;43.884;20.340;2023-07-24T01:43:09;20.00;;;16.80;;
54795;SDS011;40693;43.884;20.340;2023-07-24T01:45:35;18.80;;;15.85;;
54795;SDS011;40693;43.884;20.340;2023-07-24T01:48:01;20.35;;;17.00;;
54795;SDS011;40693;43.884;20.340;2023-07-24T01:50:29;19.45;;;17.20;;
54795;SDS011;40693;43.884;20.340;2023-07-24T01:52:54;21.67;;;17.98;;
54795;SDS011;40693;43.884;20.340;2023-07-24T01:55:20;19.85;;;17.60;;
54795;SDS011;40693;43.884;20.340;2023-07-24T01:57:46;22.85;;;18.40;;
54795;SDS011;40693;43.884;20.340;2023-07-24T02:00:11;19.48;;;17.40;;
54795;SDS011;40693;43.884;20.340;2023-07-24T02:02:37;19.38;;;16.75;;
54795;SDS011;40693;43.884;20.340;2023-07-24T02:05:03;22.00;;;16.98;;
54795;SDS011;40693;43.884;20.340;2023-07-24T02:07:29;20.60;;;17.17;;
54795;SDS011;40693;43.884;20.340;2023-07-24T02:09:55;18.23;;;16.33;;
54795;SDS011;40693;43.884;20.340;2023-07-24T02:12:20;22.77;;;17.58;;
54795;SDS011;40693;43.884;20.340;2023-07-24T02:14:46;19.50;;;17.40;;
54795;SDS011;40693;43.884;20.340;2023-07-24T02:17:15;20.60;;;17.15;;
54795;SDS011;40693;43.884;20.340;2023-07-24T02:19:41;23.95;;;18.38;;
54795;SDS011;40693;43.884;20.340;2023-07-24T02:22:06;22.15;;;17.73;;
54795;SDS011;40693;43.884;20.340;2023-07-24T02:24:32;19.83;;;17.70;;
54795;SDS011;40693;43.884;20.340;2023-07-24T02:26:58;22.05;;;18.08;;
54795;SDS011;40693;43.884;20.340;2023-07-24T02:29:24;30.45;;;19.05;;
54795;SDS011;40693;43.884;20.340;2023-07-24T02:31:50;21.05;;;18.23;;
54795;SDS011;40693;43.884;20.340;2023-07-24T02:34:16;26.13;;;18.75;;
54795;SDS011;40693;43.884;20.340;2023-07-24T02:36:42;24.13;;;19.55;;
54795;SDS011;40693;43.884;20.340;2023-07-24T02:39:07;24.95;;;19.52;;
54795;SDS011;40693;43.884;20.340;2023-07-24T02:41:33;24.48;;;19.40;;
54795;SDS011;40693;43.884;20.340;2023-07-24T02:43:59;21.90;;;17.60;;
54795;SDS011;40693;43.884;20.340;2023-07-24T02:46:24;20.52;;;17.17;;
54795;SDS011;40693;43.884;20.340;2023-07-24T02:48:51;26.50;;;20.23;;
54795;SDS011;40693;43.884;20.340;2023-07-24T02:51:17;25.50;;;20.30;;
54795;SDS011;40693;43.884;20.340;2023-07-24T02:53:43;19.98;;;17.63;;
54795;SDS011;40693;43.884;20.340;2023-07-24T02:56:08;20.98;;;18.08;;
54795;SDS011;40693;43.884;20.340;2023-07-24T02:58:34;25.73;;;18.60;;
54795;SDS011;40693;43.884;20.340;2023-07-24T03:01:03;23.52;;;20.40;;
54795;SDS011;40693;43.884;20.340;2023-07-24T03:03:31;23.83;;;19.73;;
54795;SDS011;40693;43.884;20.340;2023-07-24T03:05:56;28.35;;;20.27;;
54795;SDS011;40693;43.884;20.340;2023-07-24T03:08:22;23.70;;;18.48;;
54795;SDS011;40693;43.884;20.340;2023-07-24T03:10:48;23.05;;;19.02;;
54795;SDS011;40693;43.884;20.340;2023-07-24T03:13:13;26.77;;;19.73;;
54795;SDS011;40693;43.884;20.340;2023-07-24T03:15:39;23.98;;;18.92;;
54795;SDS011;40693;43.884;20.340;2023-07-24T03:18:05;25.15;;;20.55;;
54795;SDS011;40693;43.884;20.340;2023-07-24T03:20:30;25.38;;;20.33;;
54795;SDS011;40693;43.884;20.340;2023-07-24T03:22:56;25.02;;;20.13;;
54795;SDS011;40693;43.884;20.340;2023-07-24T03:25:22;30.85;;;20.52;;
54795;SDS011;40693;43.884;20.340;2023-07-24T03:27:48;26.70;;;20.95;;
54795;SDS011;40693;43.884;20.340;2023-07-24T03:30:13;24.70;;;20.95;;
54795;SDS011;40693;43.884;20.340;2023-07-24T03:32:39;28.33;;;21.65;;
54795;SDS011;40693;43.884;20.340;2023-07-24T03:35:05;26.05;;;19.67;;
54795;SDS011;40693;43.884;20.340;2023-07-24T03:37:33;29.83;;;19.10;;
54795;SDS011;40693;43.884;20.340;2023-07-24T03:39:59;28.02;;;18.73;;
54795;SDS011;40693;43.884;20.340;2023-07-24T03:42:26;25.15;;;20.13;;
54795;SDS011;40693;43.884;20.340;2023-07-24T03:44:53;27.35;;;19.80;;
54795;SDS011;40693;43.884;20.340;2023-07-24T03:47:19;28.70;;;21.13;;
54795;SDS011;40693;43.884;20.340;2023-07-24T03:49:45;26.35;;;20.23;;
54795;SDS011;40693;43.884;20.340;2023-07-24T03:52:10;25.13;;;19.52;;
54795;SDS011;40693;43.884;20.340;2023-07-24T03:54:36;24.23;;;19.77;;
54795;SDS011;40693;43.884;20.340;2023-07-24T03:57:02;26.13;;;20.52;;
54795;SDS011;40693;43.884;20.340;2023-07-24T03:59:28;26.38;;;20.67;;
54795;SDS011;40693;43.884;20.340;2023-07-24T04:01:54;24.15;;;18.98;;
54795;SDS011;40693;43.884;20.340;2023-07-24T04:04:24;24.05;;;19.88;;
54795;SDS011;40693;43.884;20.340;2023-07-24T04:06:52;24.48;;;19.23;;
54795;SDS011;40693;43.884;20.340;2023-07-24T04:09:18;25.42;;;21.92;;
54795;SDS011;40693;43.884;20.340;2023-07-24T04:11:44;27.17;;;20.83;;
54795;SDS011;40693;43.884;20.340;2023-07-24T04:14:10;25.30;;;20.77;;
54795;SDS011;40693;43.884;20.340;2023-07-24T04:16:36;28.80;;;22.25;;
54795;SDS011;40693;43.884;20.340;2023-07-24T04:19:02;29.38;;;22.52;;
54795;SDS011;40693;43.884;20.340;2023-07-24T04:21:28;30.70;;;22.35;;
54795;SDS011;40693;43.884;20.340;2023-07-24T04:23:54;30.40;;;20.17;;
54795;SDS011;40693;43.884;20.340;2023-07-24T04:26:20;29.58;;;22.42;;
54795;SDS011;40693;43.884;20.340;2023-07-24T04:28:45;26.02;;;22.00;;
54795;SDS011;40693;43.884;20.340;2023-07-24T04:31:11;27.30;;;22.23;;
54795;SDS011;40693;43.884;20.340;2023-07-24T04:33:38;30.95;;;23.25;;
54795;SDS011;40693;43.884;20.340;2023-07-24T04:36:04;34.80;;;24.35;;
54795;SDS011;40693;43.884;20.340;2023-07-24T04:38:30;28.88;;;23.58;;
54795;SDS011;40693;43.884;20.340;2023-07-24T04:40:55;38.92;;;24.95;;
54795;SDS011;40693;43.884;20.340;2023-07-24T04:43:21;33.67;;;24.77;;
54795;SDS011;40693;43.884;20.340;2023-07-24T04:45:47;30.55;;;25.15;;
54795;SDS011;40693;43.884;20.340;2023-07-24T04:48:12;28.35;;;25.10;;
54795;SDS011;40693;43.884;20.340;2023-07-24T04:50:38;27.52;;;23.13;;
54795;SDS011;40693;43.884;20.340;2023-07-24T04:53:04;26.58;;;22.73;;
54795;SDS011;40693;43.884;20.340;2023-07-24T04:55:29;28.83;;;25.42;;
54795;SDS011;40693;43.884;20.340;2023-07-24T04:57:55;34.47;;;25.55;;
54795;SDS011;40693;43.884;20.340;2023-07-24T05:00:21;30.10;;;24.00;;
54795;SDS011;40693;43.884;20.340;2023-07-24T05:02:46;26.70;;;21.75;;
54795;SDS011;40693;43.884;20.340;2023-07-24T05:05:12;31.40;;;22.05;;
54795;SDS011;40693;43.884;20.340;2023-07-24T05:07:38;26.88;;;21.98;;
54795;SDS011;40693;43.884;20.340;2023-07-24T05:10:03;29.23;;;22.30;;
54795;SDS011;40693;43.884;20.340;2023-07-24T05:12:29;25.95;;;22.67;;
54795;SDS011;40693;43.884;20.340;2023-07-24T05:14:55;31.60;;;21.80;;
54795;SDS011;40693;43.884;20.340;2023-07-24T05:17:21;30.48;;;22.10;;
54795;SDS011;40693;43.884;20.340;2023-07-24T05:19:46;25.17;;;21.35;;
54795;SDS011;40693;43.884;20.340;2023-07-24T05:22:12;25.85;;;21.27;;
54795;SDS011;40693;43.884;20.340;2023-07-24T05:24:38;29.30;;;21.90;;
54795;SDS011;40693;43.884;20.340;2023-07-24T05:27:04;28.27;;;23.40;;
54795;SDS011;40693;43.884;20.340;2023-07-24T05:29:30;24.85;;;22.13;;
54795;SDS011;40693;43.884;20.340;2023-07-24T05:31:56;27.42;;;22.88;;
54795;SDS011;40693;43.884;20.340;2023-07-24T05:34:22;27.05;;;22.08;;
54795;SDS011;40693;43.884;20.340;2023-07-24T05:36:48;30.25;;;23.60;;
54795;SDS011;40693;43.884;20.340;2023-07-24T05:39:13;31.20;;;24.33;;
54795;SDS011;40693;43.884;20.340;2023-07-24T05:41:39;29.38;;;23.38;;
54795;SDS011;40693;43.884;20.340;2023-07-24T05:44:05;31.88;;;22.15;;
54795;SDS011;40693;43.884;20.340;2023-07-24T05:46:30;38.63;;;22.20;;
54795;SDS011;40693;43.884;20.340;2023-07-24T05:48:56;26.45;;;22.50;;
54795;SDS011;40693;43.884;20.340;2023-07-24T05:51:22;26.17;;;21.90;;
54795;SDS011;40693;43.884;20.340;2023-07-24T05:53:48;28.92;;;22.17;;
54795;SDS011;40693;43.884;20.340;2023-07-24T05:56:14;27.48;;;22.73;;
54795;SDS011;40693;43.884;20.340;2023-07-24T05:58:40;28.40;;;21.27;;
54795;SDS011;40693;43.884;20.340;2023-07-24T06:01:05;24.75;;;20.45;;
54795;SDS011;40693;43.884;20.340;2023-07-24T06:03:34;27.90;;;21.48;;
54795;SDS011;40693;43.884;20.340;2023-07-24T06:06:00;29.40;;;20.70;;
54795;SDS011;40693;43.884;20.340;2023-07-24T06:08:26;23.13;;;20.67;;
54795;SDS011;40693;43.884;20.340;2023-07-24T06:10:52;27.77;;;21.42;;
54795;SDS011;40693;43.884;20.340;2023-07-24T06:13:18;25.73;;;20.27;;
54795;SDS011;40693;43.884;20.340;2023-07-24T06:15:46;22.15;;;19.63;;
54795;SDS011;40693;43.884;20.340;2023-07-24T06:18:13;23.58;;;19.65;;
54795;SDS011;40693;43.884;20.340;2023-07-24T06:20:39;28.40;;;19.88;;
54795;SDS011;40693;43.884;20.340;2023-07-24T06:23:04;24.20;;;20.45;;
54795;SDS011;40693;43.884;20.340;2023-07-24T06:25:30;25.23;;;20.95;;
54795;SDS011;40693;43.884;20.340;2023-07-24T06:27:56;28.52;;;21.58;;
54795;SDS011;40693;43.884;20.340;2023-07-24T06:30:22;27.15;;;20.67;;
54795;SDS011;40693;43.884;20.340;2023-07-24T06:32:48;25.80;;;22.27;;
54795;SDS011;40693;43.884;20.340;2023-07-24T06:35:14;24.27;;;21.27;;
54795;SDS011;40693;43.884;20.340;2023-07-24T06:37:40;28.65;;;21.10;;
54795;SDS011;40693;43.884;20.340;2023-07-24T06:40:06;26.23;;;21.95;;
54795;SDS011;40693;43.884;20.340;2023-07-24T06:42:32;24.70;;;19.10;;
54795;SDS011;40693;43.884;20.340;2023-07-24T06:44:58;21.95;;;19.00;;
54795;SDS011;40693;43.884;20.340;2023-07-24T06:47:24;26.05;;;21.38;;
54795;SDS011;40693;43.884;20.340;2023-07-24T06:49:50;32.80;;;19.63;;
54795;SDS011;40693;43.884;20.340;2023-07-24T06:52:15;27.48;;;19.83;;
54795;SDS011;40693;43.884;20.340;2023-07-24T06:54:44;30.25;;;20.80;;
54795;SDS011;40693;43.884;20.340;2023-07-24T06:57:09;21.50;;;18.20;;
54795;SDS011;40693;43.884;20.340;2023-07-24T06:59:35;22.30;;;18.48;;
54795;SDS011;40693;43.884;20.340;2023-07-24T07:02:01;21.13;;;16.70;;
54795;SDS011;40693;43.884;20.340;2023-07-24T07:04:27;20.70;;;17.98;;
54795;SDS011;40693;43.884;20.340;2023-07-24T07:06:52;20.63;;;16.83;;
54795;SDS011;40693;43.884;20.340;2023-07-24T07:09:18;21.73;;;16.98;;
54795;SDS011;40693;43.884;20.340;2023-07-24T07:11:44;19.65;;;17.05;;
54795;SDS011;40693;43.884;20.340;2023-07-24T07:14:10;18.23;;;16.38;;
54795;SDS011;40693;43.884;20.340;2023-07-24T07:16:35;17.60;;;15.70;;
54795;SDS011;40693;43.884;20.340;2023-07-24T07:19:01;23.30;;;15.05;;
54795;SDS011;40693;43.884;20.340;2023-07-24T07:21:27;17.10;;;13.60;;
54795;SDS011;40693;43.884;20.340;2023-07-24T07:23:53;27.10;;;16.60;;
54795;SDS011;40693;43.884;20.340;2023-07-24T07:26:19;20.70;;;15.57;;
54795;SDS011;40693;43.884;20.340;2023-07-24T07:28:45;19.67;;;15.52;;
54795;SDS011;40693;43.884;20.340;2023-07-24T07:31:11;20.73;;;16.33;;
54795;SDS011;40693;43.884;20.340;2023-07-24T07:33:37;17.25;;;14.98;;
54795;SDS011;40693;43.884;20.340;2023-07-24T07:36:02;20.10;;;15.68;;
54795;SDS011;40693;43.884;20.340;2023-07-24T07:38:31;18.33;;;15.15;;
54795;SDS011;40693;43.884;20.340;2023-07-24T07:40:57;18.35;;;13.93;;
54795;SDS011;40693;43.884;20.340;2023-07-24T07:43:23;18.73;;;14.27;;
54795;SDS011;40693;43.884;20.340;2023-07-24T07:45:49;16.38;;;13.20;;
54795;SDS011;40693;43.884;20.340;2023-07-24T07:48:14;17.40;;;13.20;;
54795;SDS011;40693;43.884;20.340;2023-07-24T07:50:40;19.33;;;13.77;;
54795;SDS011;40693;43.884;20.340;2023-07-24T07:53:06;18.95;;;15.75;;
54795;SDS011;40693;43.884;20.340;2023-07-24T07:55:32;17.88;;;13.18;;
54795;SDS011;40693;43.884;20.340;2023-07-24T07:57:58;18.10;;;14.50;;
54795;SDS011;40693;43.884;20.340;2023-07-24T08:00:24;18.75;;;13.35;;
54795;SDS011;40693;43.884;20.340;2023-07-24T08:02:49;19.02;;;13.88;;
54795;SDS011;40693;43.884;20.340;2023-07-24T08:05:15;17.05;;;13.45;;
54795;SDS011;40693;43.884;20.340;2023-07-24T08:07:41;16.13;;;12.88;;
54795;SDS011;40693;43.884;20.340;2023-07-24T08:10:07;19.00;;;14.68;;
54795;SDS011;40693;43.884;20.340;2023-07-24T08:12:33;15.05;;;13.45;;
54795;SDS011;40693;43.884;20.340;2023-07-24T08:14:59;19.35;;;13.25;;
54795;SDS011;40693;43.884;20.340;2023-07-24T08:17:25;17.00;;;13.27;;
54795;SDS011;40693;43.884;20.340;2023-07-24T08:19:50;20.80;;;14.02;;
54795;SDS011;40693;43.884;20.340;2023-07-24T08:22:16;17.08;;;13.88;;
54795;SDS011;40693;43.884;20.340;2023-07-24T08:24:43;17.20;;;13.18;;
54795;SDS011;40693;43.884;20.340;2023-07-24T08:27:09;15.35;;;12.77;;
54795;SDS011;40693;43.884;20.340;2023-07-24T08:29:35;18.23;;;12.88;;
54795;SDS011;40693;43.884;20.340;2023-07-24T08:32:03;17.08;;;13.20;;
54795;SDS011;40693;43.884;20.340;2023-07-24T08:34:29;16.90;;;13.65;;
54795;SDS011;40693;43.884;20.340;2023-07-24T08:36:55;16.70;;;13.35;;
54795;SDS011;40693;43.884;20.340;2023-07-24T08:39:20;14.60;;;11.70;;
54795;SDS011;40693;43.884;20.340;2023-07-24T08:41:46;16.38;;;12.48;;
54795;SDS011;40693;43.884;20.340;2023-07-24T08:44:12;15.25;;;12.30;;
54795;SDS011;40693;43.884;20.340;2023-07-24T08:46:38;17.08;;;12.45;;
54795;SDS011;40693;43.884;20.340;2023-07-24T08:49:06;18.85;;;12.40;;
54795;SDS011;40693;43.884;20.340;2023-07-24T08:51:36;17.23;;;12.93;;
54795;SDS011;40693;43.884;20.340;2023-07-24T08:54:04;19.20;;;12.15;;
54795;SDS011;40693;43.884;20.340;2023-07-24T08:56:30;28.92;;;13.80;;
54795;SDS011;40693;43.884;20.340;2023-07-24T08:58:55;14.13;;;12.52;;
54795;SDS011;40693;43.884;20.340;2023-07-24T09:01:21;16.15;;;12.68;;
54795;SDS011;40693;43.884;20.340;2023-07-24T09:03:47;14.95;;;12.10;;
54795;SDS011;40693;43.884;20.340;2023-07-24T09:06:13;20.55;;;12.15;;
54795;SDS011;40693;43.884;20.340;2023-07-24T09:08:39;16.42;;;11.93;;
54795;SDS011;40693;43.884;20.340;2023-07-24T09:11:06;15.27;;;12.57;;
54795;SDS011;40693;43.884;20.340;2023-07-24T09:13:38;15.35;;;12.27;;
54795;SDS011;40693;43.884;20.340;2023-07-24T09:16:07;14.75;;;11.25;;
54795;SDS011;40693;43.884;20.340;2023-07-24T09:18:39;16.85;;;12.30;;
54795;SDS011;40693;43.884;20.340;2023-07-24T09:21:08;17.30;;;13.10;;
54795;SDS011;40693;43.884;20.340;2023-07-24T09:23:34;18.20;;;13.65;;
54795;SDS011;40693;43.884;20.340;2023-07-24T09:26:04;23.35;;;12.63;;
54795;SDS011;40693;43.884;20.340;2023-07-24T09:28:31;16.10;;;11.95;;
54795;SDS011;40693;43.884;20.340;2023-07-24T09:30:59;15.48;;;11.75;;
54795;SDS011;40693;43.884;20.340;2023-07-24T09:33:36;16.75;;;11.82;;
54795;SDS011;40693;43.884;20.340;2023-07-24T09:36:04;19.05;;;12.68;;
54795;SDS011;40693;43.884;20.340;2023-07-24T09:38:33;14.73;;;12.02;;
54795;SDS011;40693;43.884;20.340;2023-07-24T09:41:00;12.98;;;11.32;;
54795;SDS011;40693;43.884;20.340;2023-07-24T09:43:27;16.05;;;11.40;;
54795;SDS011;40693;43.884;20.340;2023-07-24T09:45:55;14.55;;;10.07;;
54795;SDS011;40693;43.884;20.340;2023-07-24T09:48:22;15.10;;;11.77;;
54795;SDS011;40693;43.884;20.340;2023-07-24T09:50:53;14.55;;;11.07;;
54795;SDS011;40693;43.884;20.340;2023-07-24T09:53:39;13.88;;;11.35;;
54795;SDS011;40693;43.884;20.340;2023-07-24T09:56:25;15.30;;;11.70;;
54795;SDS011;40693;43.884;20.340;2023-07-24T09:58:52;16.25;;;11.10;;
54795;SDS011;40693;43.884;20.340;2023-07-24T10:01:20;15.18;;;11.55;;
54795;SDS011;40693;43.884;20.340;2023-07-24T10:03:47;13.70;;;11.20;;
54795;SDS011;40693;43.884;20.340;2023-07-24T10:06:15;14.98;;;12.02;;
54795;SDS011;40693;43.884;20.340;2023-07-24T10:08:42;13.77;;;11.13;;
54795;SDS011;40693;43.884;20.340;2023-07-24T10:11:09;15.57;;;12.70;;
54795;SDS011;40693;43.884;20.340;2023-07-24T10:13:39;14.93;;;10.75;;
54795;SDS011;40693;43.884;20.340;2023-07-24T10:16:06;14.32;;;11.48;;
54795;SDS011;40693;43.884;20.340;2023-07-24T10:18:33;15.25;;;11.05;;
54795;SDS011;40693;43.884;20.340;2023-07-24T10:21:04;14.80;;;11.30;;
54795;SDS011;40693;43.884;20.340;2023-07-24T10:23:33;16.52;;;11.35;;
54795;SDS011;40693;43.884;20.340;2023-07-24T10:26:03;14.80;;;10.38;;
54795;SDS011;40693;43.884;20.340;2023-07-24T10:28:31;17.90;;;12.25;;
54795;SDS011;40693;43.884;20.340;2023-07-24T10:31:00;12.35;;;10.45;;
54795;SDS011;40693;43.884;20.340;2023-07-24T10:33:29;19.45;;;12.48;;
54795;SDS011;40693;43.884;20.340;2023-07-24T10:36:03;13.93;;;11.18;;
54795;SDS011;40693;43.884;20.340;2023-07-24T10:38:37;14.50;;;10.88;;
54795;SDS011;40693;43.884;20.340;2023-07-24T10:41:05;17.85;;;11.07;;
54795;SDS011;40693;43.884;20.340;2023-07-24T10:43:52;15.77;;;11.10;;
54795;SDS011;40693;43.884;20.340;2023-07-24T10:46:34;15.10;;;10.63;;
54795;SDS011;40693;43.884;20.340;2023-07-24T10:49:09;14.48;;;10.63;;
54795;SDS011;40693;43.884;20.340;2023-07-24T10:51:36;11.90;;;9.77;;
54795;SDS011;40693;43.884;20.340;2023-07-24T10:54:05;15.18;;;10.05;;
54795;SDS011;40693;43.884;20.340;2023-07-24T10:56:31;15.93;;;10.48;;
54795;SDS011;40693;43.884;20.340;2023-07-24T10:59:01;14.18;;;10.88;;
54795;SDS011;40693;43.884;20.340;2023-07-24T11:01:28;15.93;;;10.65;;
54795;SDS011;40693;43.884;20.340;2023-07-24T11:03:56;15.18;;;10.75;;
54795;SDS011;40693;43.884;20.340;2023-07-24T11:06:21;18.08;;;11.95;;
54795;SDS011;40693;43.884;20.340;2023-07-24T11:08:51;15.05;;;11.15;;
54795;SDS011;40693;43.884;20.340;2023-07-24T11:11:31;14.88;;;11.98;;
54795;SDS011;40693;43.884;20.340;2023-07-24T11:13:58;15.40;;;10.50;;
54795;SDS011;40693;43.884;20.340;2023-07-24T11:16:25;14.18;;;10.18;;
54795;SDS011;40693;43.884;20.340;2023-07-24T11:18:51;16.08;;;10.40;;
54795;SDS011;40693;43.884;20.340;2023-07-24T11:21:20;14.15;;;11.00;;
54795;SDS011;40693;43.884;20.340;2023-07-24T11:23:50;17.35;;;10.75;;
54795;SDS011;40693;43.884;20.340;2023-07-24T11:26:23;17.48;;;11.25;;
54795;SDS011;40693;43.884;20.340;2023-07-24T11:28:51;15.52;;;10.90;;
54795;SDS011;40693;43.884;20.340;2023-07-24T11:31:17;15.90;;;10.23;;
54795;SDS011;40693;43.884;20.340;2023-07-24T11:33:45;19.67;;;10.63;;
54795;SDS011;40693;43.884;20.340;2023-07-24T11:36:11;18.80;;;10.90;;
54795;SDS011;40693;43.884;20.340;2023-07-24T11:38:38;18.48;;;11.10;;
54795;SDS011;40693;43.884;20.340;2023-07-24T11:41:04;14.65;;;10.85;;
54795;SDS011;40693;43.884;20.340;2023-07-24T11:43:30;16.48;;;11.35;;
54795;SDS011;40693;43.884;20.340;2023-07-24T11:45:55;14.63;;;10.43;;
54795;SDS011;40693;43.884;20.340;2023-07-24T11:48:22;17.58;;;10.90;;
54795;SDS011;40693;43.884;20.340;2023-07-24T11:50:49;15.70;;;10.48;;
54795;SDS011;40693;43.884;20.340;2023-07-24T11:53:23;14.82;;;10.98;;
54795;SDS011;40693;43.884;20.340;2023-07-24T11:55:53;16.20;;;11.25;;
54795;SDS011;40693;43.884;20.340;2023-07-24T11:58:20;18.00;;;11.07;;
54795;SDS011;40693;43.884;20.340;2023-07-24T12:00:47;18.42;;;11.25;;
54795;SDS011;40693;43.884;20.340;2023-07-24T12:03:14;17.35;;;11.10;;
54795;SDS011;40693;43.884;20.340;2023-07-24T12:05:53;13.55;;;10.13;;
54795;SDS011;40693;43.884;20.340;2023-07-24T12:08:32;16.00;;;11.15;;
54795;SDS011;40693;43.884;20.340;2023-07-24T12:10:59;14.65;;;10.18;;
54795;SDS011;40693;43.884;20.340;2023-07-24T12:13:25;16.17;;;10.93;;
54795;SDS011;40693;43.884;20.340;2023-07-24T12:15:52;16.45;;;10.45;;
54795;SDS011;40693;43.884;20.340;2023-07-24T12:18:18;18.60;;;10.32;;
54795;SDS011;40693;43.884;20.340;2023-07-24T12:20:43;15.45;;;10.82;;
54795;SDS011;40693;43.884;20.340;2023-07-24T12:23:09;12.70;;;10.40;;
54795;SDS011;40693;43.884;20.340;2023-07-24T12:25:35;14.73;;;11.52;;
54795;SDS011;40693;43.884;20.340;2023-07-24T12:28:01;16.52;;;12.38;;
54795;SDS011;40693;43.884;20.340;2023-07-24T12:30:26;13.45;;;10.63;;
54795;SDS011;40693;43.884;20.340;2023-07-24T12:32:52;15.70;;;10.48;;
54795;SDS011;40693;43.884;20.340;2023-07-24T12:35:18;15.00;;;10.82;;
54795;SDS011;40693;43.884;20.340;2023-07-24T12:37:44;17.75;;;11.13;;
54795;SDS011;40693;43.884;20.340;2023-07-24T12:40:11;16.17;;;11.63;;
54795;SDS011;40693;43.884;20.340;2023-07-24T12:42:37;19.50;;;11.52;;
54795;SDS011;40693;43.884;20.340;2023-07-24T12:45:03;18.63;;;12.02;;
54795;SDS011;40693;43.884;20.340;2023-07-24T12:47:32;17.85;;;12.18;;
54795;SDS011;40693;43.884;20.340;2023-07-24T12:49:58;18.70;;;11.30;;
54795;SDS011;40693;43.884;20.340;2023-07-24T12:52:25;17.50;;;11.27;;
54795;SDS011;40693;43.884;20.340;2023-07-24T12:54:51;17.63;;;12.00;;
54795;SDS011;40693;43.884;20.340;2023-07-24T12:57:17;17.73;;;11.90;;
54795;SDS011;40693;43.884;20.340;2023-07-24T12:59:42;13.93;;;11.30;;
54795;SDS011;40693;43.884;20.340;2023-07-24T13:02:08;18.08;;;11.77;;
54795;SDS011;40693;43.884;20.340;2023-07-24T13:04:34;15.40;;;11.25;;
54795;SDS011;40693;43.884;20.340;2023-07-24T13:07:00;14.65;;;11.00;;
54795;SDS011;40693;43.884;20.340;2023-07-24T13:09:26;15.95;;;11.60;;
54795;SDS011;40693;43.884;20.340;2023-07-24T13:11:52;16.60;;;11.50;;
54795;SDS011;40693;43.884;20.340;2023-07-24T13:14:19;17.58;;;11.82;;
54795;SDS011;40693;43.884;20.340;2023-07-24T13:16:46;14.85;;;11.10;;
54795;SDS011;40693;43.884;20.340;2023-07-24T13:19:12;15.30;;;10.77;;
54795;SDS011;40693;43.884;20.340;2023-07-24T13:21:38;16.70;;;11.38;;
54795;SDS011;40693;43.884;20.340;2023-07-24T13:24:08;15.73;;;11.40;;
54795;SDS011;40693;43.884;20.340;2023-07-24T13:26:34;14.40;;;11.63;;
54795;SDS011;40693;43.884;20.340;2023-07-24T13:29:00;15.50;;;11.52;;
54795;SDS011;40693;43.884;20.340;2023-07-24T13:31:25;18.85;;;11.73;;
54795;SDS011;40693;43.884;20.340;2023-07-24T13:33:53;17.63;;;11.85;;
54795;SDS011;40693;43.884;20.340;2023-07-24T13:36:19;14.82;;;11.35;;
54795;SDS011;40693;43.884;20.340;2023-07-24T13:38:44;15.35;;;11.82;;
54795;SDS011;40693;43.884;20.340;2023-07-24T13:41:10;16.23;;;12.50;;
54795;SDS011;40693;43.884;20.340;2023-07-24T13:43:36;19.73;;;12.35;;
54795;SDS011;40693;43.884;20.340;2023-07-24T13:46:02;16.33;;;11.85;;
54795;SDS011;40693;43.884;20.340;2023-07-24T13:48:28;17.95;;;12.77;;
54795;SDS011;40693;43.884;20.340;2023-07-24T13:50:54;15.27;;;11.18;;
54795;SDS011;40693;43.884;20.340;2023-07-24T13:53:20;15.43;;;12.02;;
54795;SDS011;40693;43.884;20.340;2023-07-24T13:55:46;17.27;;;12.02;;
54795;SDS011;40693;43.884;20.340;2023-07-24T13:58:12;15.88;;;12.50;;
54795;SDS011;40693;43.884;20.340;2023-07-24T14:00:38;17.90;;;13.13;;
54795;SDS011;40693;43.884;20.340;2023-07-24T14:03:04;14.02;;;11.27;;
54795;SDS011;40693;43.884;20.340;2023-07-24T14:05:30;15.70;;;10.73;;
54795;SDS011;40693;43.884;20.340;2023-07-24T14:07:56;21.45;;;13.25;;